Time;durP1;ratioP1;P1;durP2;ratioP2;P2;SDS_P1;SDS_P2;PMS_P1;PMS_P2;Temp;Humidity;BMP_temperature;BMP_pressure;BME280_temperature;BME280_humidity;BME280_pressure;Samples;Min_cycle;Max_cycle;Signal;HPM_P1;HPM_P2
2023/08/20 00:00:16;;;;;;;11.33;10.33;;;22.20;99.90;;;;;;5095663;28;20190;-79
2023/08/20 00:02:44;;;;;;;11.63;10.53;;;22.20;99.90;;;;;;5096683;28;20693;-76
2023/08/20 00:05:10;;;;;;;11.73;10.73;;;22.20;99.90;;;;;;5117537;28;20170;-81
2023/08/20 00:07:36;;;;;;;11.90;10.70;;;22.30;99.90;;;;;;5117842;28;20186;-81
2023/08/20 00:10:04;;;;;;;12.27;11.17;;;22.30;99.90;;;;;;5117516;28;20178;-77
2023/08/20 00:12:30;;;;;;;12.00;10.40;;;22.20;99.90;;;;;;5118541;28;20663;-78
2023/08/20 00:15:05;;;;;;;14.63;11.17;;;22.20;99.90;;;;;;5131814;28;20177;-77
2023/08/20 00:17:36;;;;;;;11.13;10.13;;;22.20;99.90;;;;;;5123192;28;20170;-75
2023/08/20 00:20:24;;;;;;;12.20;11.00;;;22.20;99.90;;;;;;5117670;28;20185;-79
2023/08/20 00:22:50;;;;;;;11.00;10.10;;;22.20;99.90;;;;;;5116738;28;20233;-80
2023/08/20 00:25:19;;;;;;;12.20;11.03;;;22.20;99.90;;;;;;5117036;28;20582;-81
2023/08/20 00:27:45;;;;;;;12.53;11.23;;;22.20;99.90;;;;;;5116928;28;20192;-80
2023/08/20 00:30:11;;;;;;;11.53;10.53;;;22.20;99.90;;;;;;5098849;28;20186;-81
2023/08/20 00:32:37;;;;;;;12.90;11.53;;;22.10;99.90;;;;;;5116685;28;20174;-79
2023/08/20 00:35:04;;;;;;;12.50;11.23;;;22.10;99.90;;;;;;5116964;28;20641;-79
2023/08/20 00:37:31;;;;;;;11.70;10.60;;;22.00;99.90;;;;;;5120027;28;20174;-82
2023/08/20 00:40:00;;;;;;;11.10;10.13;;;22.00;99.90;;;;;;5120923;28;20250;-79
2023/08/20 00:42:25;;;;;;;12.10;11.00;;;22.10;99.90;;;;;;5118521;28;20221;-80
2023/08/20 00:44:52;;;;;;;11.60;10.57;;;22.10;99.90;;;;;;5116852;28;20186;-81
2023/08/20 00:47:19;;;;;;;12.90;11.40;;;22.10;99.90;;;;;;5116517;28;20203;-78
2023/08/20 00:49:46;;;;;;;11.87;10.80;;;22.00;99.90;;;;;;5116666;28;20182;-81
2023/08/20 00:52:15;;;;;;;12.63;10.90;;;22.00;99.90;;;;;;5116630;28;20201;-77
2023/08/20 00:54:41;;;;;;;12.03;10.93;;;22.10;99.90;;;;;;5116723;28;20260;-77
2023/08/20 00:57:08;;;;;;;11.53;10.53;;;22.00;99.90;;;;;;5117931;28;20182;-82
2023/08/20 00:59:34;;;;;;;12.47;11.20;;;22.00;99.90;;;;;;5130123;28;20241;-80
2023/08/20 01:02:01;;;;;;;12.63;10.83;;;22.00;99.90;;;;;;5137586;28;20178;-77
2023/08/20 01:04:29;;;;;;;11.67;10.57;;;22.00;99.90;;;;;;5125791;28;20190;-77
2023/08/20 01:07:10;;;;;;;13.03;10.33;;;22.00;99.90;;;;;;5100449;28;20355;-79
2023/08/20 01:10:09;;;;;;;11.60;10.43;;;21.90;99.90;;;;;;5123389;28;20201;-78
2023/08/20 01:12:36;;;;;;;11.53;10.43;;;21.80;99.90;;;;;;5098120;28;20181;-80
2023/08/20 01:15:02;;;;;;;12.83;11.57;;;21.80;99.90;;;;;;5125130;28;20164;-78
2023/08/20 01:17:27;;;;;;;12.13;10.87;;;21.80;99.90;;;;;;5109885;28;20190;-78
2023/08/20 01:19:53;;;;;;;13.27;11.60;;;21.80;99.90;;;;;;5116483;28;20569;-77
2023/08/20 01:22:19;;;;;;;12.10;11.00;;;21.80;99.90;;;;;;5115670;28;20296;-76
2023/08/20 01:25:08;;;;;;;12.70;11.57;;;21.80;99.90;;;;;;5097731;28;20186;-80
2023/08/20 01:28:13;;;;;;;12.63;11.53;;;21.70;99.90;;;;;;5136176;28;20166;-80
2023/08/20 01:30:40;;;;;;;12.50;11.30;;;21.80;99.90;;;;;;5093349;28;20182;-78
2023/08/20 01:33:07;;;;;;;12.80;11.50;;;21.70;99.90;;;;;;5115541;28;20184;-78
2023/08/20 01:35:32;;;;;;;12.60;11.33;;;21.70;99.90;;;;;;5115653;28;20265;-78
2023/08/20 01:37:58;;;;;;;12.57;11.37;;;21.70;99.90;;;;;;5115423;28;20598;-80
2023/08/20 01:40:24;;;;;;;11.93;10.73;;;21.70;99.90;;;;;;5115719;28;20174;-81
2023/08/20 01:42:50;;;;;;;12.27;11.17;;;21.70;99.90;;;;;;5115044;28;20587;-79
2023/08/20 01:45:16;;;;;;;13.47;11.73;;;21.70;99.90;;;;;;5115306;28;20177;-77
2023/08/20 01:47:43;;;;;;;12.43;11.20;;;21.70;99.90;;;;;;5115164;28;20173;-79
2023/08/20 01:50:09;;;;;;;12.37;11.17;;;21.60;99.90;;;;;;5115664;28;20185;-78
2023/08/20 01:52:35;;;;;;;12.77;11.47;;;21.60;99.90;;;;;;5115172;28;20186;-81
2023/08/20 01:55:02;;;;;;;13.17;11.97;;;21.60;99.90;;;;;;5106160;28;20247;-80
2023/08/20 01:57:28;;;;;;;12.47;11.37;;;21.60;99.90;;;;;;5116151;28;20182;-80
2023/08/20 01:59:53;;;;;;;11.37;10.37;;;21.60;99.90;;;;;;5120260;28;20230;-80
2023/08/20 02:02:20;;;;;;;12.07;10.87;;;21.50;99.90;;;;;;5116466;28;20221;-79
2023/08/20 02:04:46;;;;;;;12.47;11.17;;;21.50;99.90;;;;;;5119630;28;20194;-80
2023/08/20 02:07:11;;;;;;;12.97;11.60;;;21.40;99.90;;;;;;5122099;28;20185;-78
2023/08/20 02:09:37;;;;;;;12.93;11.77;;;21.40;99.90;;;;;;5116106;28;20239;-79
2023/08/20 02:12:03;;;;;;;13.00;11.90;;;21.40;99.90;;;;;;5114602;28;20193;-79
2023/08/20 02:14:29;;;;;;;11.77;10.67;;;21.30;99.90;;;;;;5114791;28;20174;-82
2023/08/20 02:16:55;;;;;;;12.93;11.63;;;21.30;99.90;;;;;;5115039;28;20246;-77
2023/08/20 02:19:21;;;;;;;13.33;11.93;;;21.30;99.90;;;;;;5114809;28;20186;-80
2023/08/20 02:21:47;;;;;;;13.40;12.00;;;21.30;99.90;;;;;;5114673;28;20217;-81
2023/08/20 02:24:13;;;;;;;12.73;11.57;;;21.30;99.90;;;;;;5114850;28;20315;-80
2023/08/20 02:26:39;;;;;;;12.83;11.67;;;21.30;99.90;;;;;;5114262;28;20197;-80
2023/08/20 02:29:05;;;;;;;13.47;12.17;;;21.30;99.90;;;;;;5098025;28;20186;-82
2023/08/20 02:31:31;;;;;;;12.83;11.40;;;21.20;99.90;;;;;;5120095;28;20181;-79
2023/08/20 02:33:57;;;;;;;12.83;11.53;;;21.10;99.90;;;;;;5117133;28;20582;-80
2023/08/20 02:36:22;;;;;;;12.67;11.47;;;21.10;99.90;;;;;;5114645;28;20185;-79
2023/08/20 02:38:48;;;;;;;13.17;11.87;;;21.20;99.90;;;;;;5114417;28;20166;-82
2023/08/20 02:41:14;;;;;;;11.87;10.73;;;21.20;99.90;;;;;;5116270;28;20246;-76
2023/08/20 02:43:40;;;;;;;12.43;11.30;;;21.20;99.90;;;;;;5117347;28;20247;-78
2023/08/20 02:46:06;;;;;;;13.53;12.13;;;21.20;99.90;;;;;;5124090;28;20192;-76
2023/08/20 02:48:32;;;;;;;13.77;12.37;;;21.20;99.90;;;;;;5101134;28;20197;-76
2023/08/20 02:50:57;;;;;;;12.87;11.67;;;21.20;99.90;;;;;;5114675;28;20261;-78
2023/08/20 02:53:23;;;;;;;14.30;11.80;;;21.20;99.90;;;;;;5110764;28;20240;-77
2023/08/20 02:55:49;;;;;;;13.47;12.17;;;21.30;99.90;;;;;;5120292;28;20613;-78
2023/08/20 02:58:15;;;;;;;11.83;10.60;;;21.20;99.90;;;;;;5114261;28;20259;-77
2023/08/20 03:00:45;;;;;;;12.97;11.77;;;21.20;99.90;;;;;;5114101;28;20184;-78
2023/08/20 03:03:11;;;;;;;13.13;11.83;;;21.20;99.90;;;;;;5115015;28;20205;-79
2023/08/20 03:05:37;;;;;;;12.90;11.63;;;21.20;99.90;;;;;;5136102;28;20197;-76
2023/08/20 03:08:03;;;;;;;12.47;11.37;;;21.20;99.90;;;;;;5114981;28;20227;-78
2023/08/20 03:10:33;;;;;;;12.23;11.00;;;21.20;99.90;;;;;;5114018;28;20173;-75
2023/08/20 03:13:00;;;;;;;12.70;11.53;;;21.20;99.90;;;;;;5113765;28;20209;-76
2023/08/20 03:15:27;;;;;;;12.87;11.57;;;21.20;99.90;;;;;;5113945;28;20644;-78
2023/08/20 03:17:53;;;;;;;12.20;11.10;;;21.20;99.90;;;;;;5114055;28;20542;-78
2023/08/20 03:20:19;;;;;;;13.17;11.87;;;21.10;99.90;;;;;;5115388;28;20177;-77
2023/08/20 03:22:44;;;;;;;13.47;12.17;;;21.10;99.90;;;;;;5113311;28;20390;-76
2023/08/20 03:25:10;;;;;;;12.87;11.67;;;21.00;99.90;;;;;;5127318;28;20178;-76
2023/08/20 03:27:36;;;;;;;12.03;10.93;;;21.00;99.90;;;;;;5138726;28;20162;-77
2023/08/20 03:30:03;;;;;;;13.30;12.10;;;21.00;99.90;;;;;;5121254;28;20170;-78
2023/08/20 03:32:28;;;;;;;12.37;11.17;;;21.00;99.90;;;;;;5138108;28;20173;-79
2023/08/20 03:34:55;;;;;;;12.37;11.23;;;21.00;99.90;;;;;;5138766;28;20235;-79
2023/08/20 03:37:22;;;;;;;13.10;11.80;;;21.00;99.90;;;;;;5139734;28;20165;-81
2023/08/20 03:39:48;;;;;;;15.80;12.53;;;20.90;99.90;;;;;;5125609;28;20201;-77
2023/08/20 03:42:13;;;;;;;12.77;11.57;;;20.90;99.90;;;;;;5129889;28;20182;-77
2023/08/20 03:44:39;;;;;;;12.97;11.87;;;20.90;99.90;;;;;;5131711;28;20215;-76
2023/08/20 03:47:05;;;;;;;14.60;11.93;;;20.80;99.90;;;;;;5136396;28;20203;-78
2023/08/20 03:49:31;;;;;;;13.00;11.73;;;20.90;99.90;;;;;;5122020;28;20177;-78
2023/08/20 03:51:56;;;;;;;12.73;11.53;;;20.80;99.90;;;;;;5121220;28;20536;-77
2023/08/20 03:54:22;;;;;;;12.57;11.27;;;20.90;99.90;;;;;;5128763;28;20188;-77
2023/08/20 03:56:48;;;;;;;13.00;11.90;;;20.90;99.90;;;;;;5122883;28;20297;-77
2023/08/20 03:59:14;;;;;;;13.20;11.90;;;20.90;99.90;;;;;;5104787;28;20661;-78
2023/08/20 04:01:39;;;;;;;12.43;11.33;;;20.90;99.90;;;;;;5121369;28;20186;-78
2023/08/20 04:04:05;;;;;;;12.90;11.70;;;20.90;99.90;;;;;;5118901;28;20221;-80
2023/08/20 04:06:31;;;;;;;12.87;11.57;;;20.90;99.90;;;;;;5117865;28;20225;-77
2023/08/20 04:08:57;;;;;;;12.77;11.60;;;20.90;99.90;;;;;;5117613;28;20184;-78
2023/08/20 04:11:22;;;;;;;12.83;11.47;;;20.90;99.90;;;;;;5098824;28;20188;-79
2023/08/20 04:13:48;;;;;;;12.10;11.00;;;20.90;99.90;;;;;;5117409;28;20181;-80
2023/08/20 04:16:15;;;;;;;13.73;12.23;;;20.90;99.90;;;;;;5099026;28;20190;-81
2023/08/20 04:18:40;;;;;;;12.80;11.60;;;20.90;99.90;;;;;;5124362;28;20197;-82
2023/08/20 04:21:09;;;;;;;14.53;11.10;;;20.90;99.90;;;;;;5117452;28;20707;-84
2023/08/20 04:23:35;;;;;;;12.97;11.77;;;20.90;99.90;;;;;;5117218;28;20241;-77
2023/08/20 04:26:01;;;;;;;11.60;10.70;;;20.90;99.90;;;;;;5117366;28;20219;-77
2023/08/20 04:28:27;;;;;;;12.53;11.33;;;20.90;99.90;;;;;;5117182;28;20628;-80
2023/08/20 04:30:54;;;;;;;12.17;11.07;;;20.90;99.90;;;;;;5130383;28;20173;-78
2023/08/20 04:33:20;;;;;;;11.53;10.47;;;20.90;99.90;;;;;;5123963;28;20539;-77
2023/08/20 04:35:50;;;;;;;12.63;11.10;;;21.00;99.90;;;;;;5117306;28;20238;-77
2023/08/20 04:38:15;;;;;;;12.57;11.37;;;21.00;99.90;;;;;;5098895;28;20190;-77
2023/08/20 04:40:41;;;;;;;12.60;11.40;;;21.00;99.90;;;;;;5117104;28;20633;-80
2023/08/20 04:43:07;;;;;;;12.07;10.97;;;21.10;99.90;;;;;;5128723;28;20229;-79
2023/08/20 04:45:33;;;;;;;12.03;10.87;;;20.90;99.90;;;;;;5124949;28;20177;-78
2023/08/20 04:48:00;;;;;;;11.50;10.40;;;20.90;99.90;;;;;;5134210;28;20528;-78
2023/08/20 04:50:25;;;;;;;16.97;11.97;;;21.00;99.90;;;;;;5124576;28;20177;-80
2023/08/20 04:52:51;;;;;;;11.50;10.50;;;20.90;99.90;;;;;;5116605;28;20181;-81
2023/08/20 04:55:17;;;;;;;11.83;10.73;;;20.90;99.90;;;;;;5116639;28;20174;-78
2023/08/20 04:57:43;;;;;;;12.70;11.50;;;20.90;99.90;;;;;;5116727;28;20224;-79
2023/08/20 05:00:09;;;;;;;11.90;10.80;;;20.80;99.90;;;;;;5117109;28;20610;-76
2023/08/20 05:02:35;;;;;;;12.20;10.90;;;20.90;99.90;;;;;;5098390;28;20213;-82
2023/08/20 05:05:02;;;;;;;12.50;11.23;;;20.90;99.90;;;;;;5116790;28;20250;-82
2023/08/20 05:07:28;;;;;;;12.07;10.97;;;20.90;99.90;;;;;;5116791;28;20636;-80
2023/08/20 05:09:54;;;;;;;12.63;11.50;;;20.90;99.90;;;;;;5116488;28;20174;-78
2023/08/20 05:12:19;;;;;;;11.83;10.77;;;21.00;99.90;;;;;;5117097;28;20242;-80
2023/08/20 05:14:45;;;;;;;12.40;11.23;;;21.00;99.90;;;;;;5117424;28;20174;-83
2023/08/20 05:17:11;;;;;;;11.53;10.50;;;20.90;99.90;;;;;;5126432;28;20177;-81
2023/08/20 05:19:37;;;;;;;11.87;10.77;;;21.00;99.90;;;;;;5126068;28;20641;-80
2023/08/20 05:22:03;;;;;;;11.63;10.57;;;21.10;99.90;;;;;;5116186;28;20225;-80
2023/08/20 05:24:28;;;;;;;11.50;10.50;;;21.20;99.90;;;;;;5116334;28;20180;-79
2023/08/20 05:27:16;;;;;;;11.77;10.60;;;21.20;99.90;;;;;;5117682;28;20166;-84
2023/08/20 05:29:42;;;;;;;11.47;10.40;;;21.30;99.90;;;;;;5135146;28;20146;-79
2023/08/20 05:32:08;;;;;;;11.73;10.57;;;21.30;99.90;;;;;;5118290;28;20185;-78
2023/08/20 05:34:34;;;;;;;11.60;10.47;;;21.70;99.90;;;;;;5116979;28;20185;-80
2023/08/20 05:37:00;;;;;;;11.23;10.13;;;21.50;99.90;;;;;;5115955;28;20178;-79
2023/08/20 05:39:26;;;;;;;10.93;9.93;;;21.60;99.90;;;;;;5116416;28;20182;-80
2023/08/20 05:41:55;;;;;;;11.07;10.13;;;21.60;99.90;;;;;;5116190;28;20267;-78
2023/08/20 05:44:22;;;;;;;11.20;10.17;;;21.60;99.90;;;;;;5115660;28;20210;-81
2023/08/20 05:46:48;;;;;;;11.17;10.17;;;21.60;99.90;;;;;;5097255;28;20551;-82
2023/08/20 05:49:15;;;;;;;11.27;10.27;;;21.60;99.90;;;;;;5115632;28;20185;-79
2023/08/20 05:51:45;;;;;;;11.27;10.17;;;21.70;99.90;;;;;;5115641;28;20174;-82
2023/08/20 05:54:11;;;;;;;10.93;10.03;;;21.70;99.90;;;;;;5121264;28;20189;-79
2023/08/20 05:56:37;;;;;;;10.50;9.60;;;21.70;99.90;;;;;;5116541;28;20197;-83
2023/08/20 05:59:03;;;;;;;11.30;10.20;;;21.80;99.90;;;;;;5112734;28;20273;-80
2023/08/20 06:01:29;;;;;;;10.80;9.70;;;21.80;99.90;;;;;;5114935;28;20265;-82
2023/08/20 06:03:55;;;;;;;11.20;10.10;;;21.90;99.90;;;;;;5113494;28;20603;-83
2023/08/20 06:06:23;;;;;;;10.83;9.83;;;21.90;99.90;;;;;;5097018;28;20613;-77
2023/08/20 06:08:48;;;;;;;10.93;9.80;;;21.90;99.90;;;;;;5125970;28;20178;-80
2023/08/20 06:11:14;;;;;;;10.60;9.60;;;22.00;99.90;;;;;;5109294;28;20696;-79
2023/08/20 06:13:40;;;;;;;11.10;10.10;;;22.10;99.90;;;;;;5115646;28;20178;-79
2023/08/20 06:16:07;;;;;;;10.60;9.80;;;22.20;99.90;;;;;;5115383;28;20640;-81
2023/08/20 06:18:33;;;;;;;9.77;8.87;;;22.30;99.90;;;;;;5115383;28;20178;-82
2023/08/20 06:20:59;;;;;;;10.50;9.60;;;22.40;99.90;;;;;;5132137;28;20220;-81
2023/08/20 06:23:25;;;;;;;11.13;10.07;;;22.50;99.90;;;;;;5107403;28;20230;-83
2023/08/20 06:25:51;;;;;;;10.60;9.70;;;22.60;99.90;;;;;;5117694;28;20177;-79
2023/08/20 06:28:17;;;;;;;10.07;9.18;;;22.80;99.90;;;;;;5115095;28;20182;-80
2023/08/20 06:30:45;;;;;;;10.48;9.45;;;22.70;99.90;;;;;;5115026;28;20234;-77
2023/08/20 06:33:11;;;;;;;10.10;9.30;;;22.90;99.90;;;;;;5115466;28;20186;-81
2023/08/20 06:35:37;;;;;;;11.17;9.50;;;22.80;99.90;;;;;;5097085;28;20182;-81
2023/08/20 06:38:05;;;;;;;10.07;9.17;;;22.80;99.90;;;;;;5115162;28;20181;-80
2023/08/20 06:40:31;;;;;;;10.20;9.20;;;22.90;99.90;;;;;;5123832;28;20174;-78
2023/08/20 06:42:57;;;;;;;10.40;9.47;;;22.90;99.90;;;;;;5120220;28;20213;-79
2023/08/20 06:45:22;;;;;;;9.80;8.90;;;23.00;99.90;;;;;;5115121;28;20180;-78
2023/08/20 06:47:48;;;;;;;10.23;9.43;;;23.00;99.90;;;;;;5115168;28;20182;-82
2023/08/20 06:50:14;;;;;;;10.10;9.20;;;23.00;99.90;;;;;;5116529;28;20181;-80
2023/08/20 06:52:40;;;;;;;9.30;8.60;;;23.10;99.90;;;;;;5118668;28;20178;-80
2023/08/20 06:55:06;;;;;;;10.17;9.20;;;23.20;99.90;;;;;;5117946;28;20189;-81
2023/08/20 06:57:32;;;;;;;10.40;9.40;;;23.30;99.90;;;;;;5097779;28;20205;-78
2023/08/20 06:59:57;;;;;;;9.85;8.95;;;23.40;99.90;;;;;;5114854;28;20193;-79
2023/08/20 07:02:23;;;;;;;9.70;8.90;;;23.40;99.90;;;;;;5114897;28;20196;-78
2023/08/20 07:04:49;;;;;;;10.02;9.20;;;23.60;99.90;;;;;;5115088;28;20216;-83
2023/08/20 07:07:15;;;;;;;9.52;8.63;;;23.70;99.90;;;;;;5114980;28;20261;-78
2023/08/20 07:09:42;;;;;;;9.10;8.38;;;23.80;99.90;;;;;;5115220;28;20186;-77
2023/08/20 07:12:08;;;;;;;9.38;8.60;;;23.70;99.90;;;;;;5118584;28;20199;-78
2023/08/20 07:14:33;;;;;;;11.20;8.57;;;23.80;99.90;;;;;;5133106;28;20235;-77
2023/08/20 07:17:00;;;;;;;9.30;8.55;;;23.80;99.90;;;;;;5115440;28;20242;-84
2023/08/20 07:19:26;;;;;;;9.65;8.75;;;23.90;99.90;;;;;;5115035;28;20166;-83
2023/08/20 07:21:51;;;;;;;9.13;8.32;;;23.90;99.90;;;;;;5114434;28;20278;-83
2023/08/20 07:24:18;;;;;;;9.68;8.88;;;24.00;99.90;;;;;;5114825;28;20754;-85
2023/08/20 07:26:43;;;;;;;9.40;8.60;;;24.10;99.90;;;;;;5131565;28;20198;-80
2023/08/20 07:29:10;;;;;;;9.60;8.80;;;24.20;99.90;;;;;;5122897;28;20178;-81
2023/08/20 07:31:35;;;;;;;9.27;8.52;;;24.30;99.90;;;;;;5136787;28;20184;-82
2023/08/20 07:34:03;;;;;;;9.57;8.80;;;24.40;99.90;;;;;;5127590;28;20205;-84
2023/08/20 07:36:29;;;;;;;9.70;8.90;;;24.50;99.90;;;;;;5118740;28;20235;-85
2023/08/20 07:38:55;;;;;;;8.77;8.07;;;24.60;99.90;;;;;;5116352;28;20177;-85
2023/08/20 07:41:21;;;;;;;10.10;9.20;;;24.90;99.90;;;;;;5098859;28;20638;-85
2023/08/20 07:43:48;;;;;;;9.73;8.65;;;24.80;99.90;;;;;;5097575;28;20248;-82
2023/08/20 07:46:15;;;;;;;9.15;8.45;;;24.90;99.90;;;;;;5101769;28;20200;-84
2023/08/20 07:48:42;;;;;;;9.35;8.65;;;24.90;99.90;;;;;;5134550;28;20174;-82
2023/08/20 07:51:08;;;;;;;9.40;8.52;;;25.10;99.90;;;;;;5125136;28;20190;-84
2023/08/20 07:53:34;;;;;;;9.63;8.85;;;25.10;99.90;;;;;;5098991;28;20235;-84
2023/08/20 07:56:01;;;;;;;9.77;8.73;;;25.10;99.90;;;;;;5116763;28;20236;-84
2023/08/20 07:58:28;;;;;;;8.20;7.47;;;25.10;99.90;;;;;;5126295;28;20166;-84
2023/08/20 08:00:54;;;;;;;8.68;8.02;;;25.20;99.90;;;;;;5135914;28;20181;-82
2023/08/20 08:03:20;;;;;;;9.65;8.88;;;25.20;99.90;;;;;;5122470;28;20661;-84
2023/08/20 08:05:50;;;;;;;9.10;8.30;;;25.30;99.90;;;;;;5123132;28;20193;-85
2023/08/20 08:08:20;;;;;;;9.43;8.63;;;25.30;99.90;;;;;;5115418;28;20204;-81
2023/08/20 08:10:46;;;;;;;8.10;7.50;;;25.30;99.90;;;;;;5114993;28;20189;-85
2023/08/20 08:13:18;;;;;;;9.25;8.50;;;25.50;99.90;;;;;;5114613;28;20174;-84
2023/08/20 08:15:43;;;;;;;9.45;8.27;;;26.30;99.90;;;;;;5114575;28;20174;-83
2023/08/20 08:18:09;;;;;;;8.90;8.15;;;25.60;99.90;;;;;;5114372;28;20588;-80
2023/08/20 08:20:35;;;;;;;8.50;7.80;;;25.70;99.90;;;;;;5112557;28;20656;-81
2023/08/20 08:23:01;;;;;;;9.30;7.82;;;25.70;99.90;;;;;;5097367;28;20221;-82
2023/08/20 08:25:27;;;;;;;8.05;7.35;;;25.80;99.90;;;;;;5117735;28;20197;-84
2023/08/20 08:27:53;;;;;;;8.65;7.82;;;25.90;99.90;;;;;;5117580;28;20659;-82
2023/08/20 08:30:18;;;;;;;8.20;7.50;;;26.50;99.90;;;;;;5117925;28;20192;-84
2023/08/20 08:32:44;;;;;;;9.02;8.27;;;26.20;99.90;;;;;;5118818;28;20637;-82
2023/08/20 08:35:10;;;;;;;8.63;7.90;;;26.20;99.90;;;;;;5117434;28;20686;-80
2023/08/20 08:37:37;;;;;;;8.60;8.00;;;26.20;99.90;;;;;;5117052;28;20187;-78
2023/08/20 08:40:06;;;;;;;8.63;7.93;;;26.30;99.90;;;;;;5116579;28;20212;-82
2023/08/20 08:42:33;;;;;;;8.27;7.60;;;26.30;99.90;;;;;;5116742;28;20216;-81
2023/08/20 08:45:03;;;;;;;8.50;7.75;;;26.30;99.90;;;;;;5117196;28;20202;-82
2023/08/20 08:47:30;;;;;;;8.63;7.90;;;26.30;99.90;;;;;;5118485;28;20625;-81
2023/08/20 08:49:56;;;;;;;8.27;7.65;;;26.40;99.90;;;;;;5117015;28;20189;-84
2023/08/20 08:52:26;;;;;;;7.57;6.97;;;26.50;99.90;;;;;;5116798;28;20247;-84
2023/08/20 08:54:52;;;;;;;7.95;7.28;;;26.60;99.90;;;;;;5117483;28;20636;-84
2023/08/20 08:57:18;;;;;;;9.57;8.73;;;26.50;99.90;;;;;;5118895;28;20200;-83
2023/08/20 08:59:44;;;;;;;7.75;7.15;;;26.50;99.90;;;;;;5130601;28;20189;-80
2023/08/20 09:02:11;;;;;;;8.43;7.72;;;26.60;99.90;;;;;;5134730;28;20182;-82
2023/08/20 09:04:43;;;;;;;8.35;7.70;;;26.70;99.90;;;;;;5121191;28;20205;-77
2023/08/20 09:07:13;;;;;;;8.68;7.97;;;26.70;99.90;;;;;;5124212;28;20174;-80
2023/08/20 09:09:45;;;;;;;8.10;7.60;;;26.70;99.90;;;;;;5116611;28;20178;-78
2023/08/20 09:12:19;;;;;;;8.18;7.47;;;26.70;99.90;;;;;;5116577;28;20637;-82
2023/08/20 09:14:49;;;;;;;7.97;7.38;;;26.70;99.90;;;;;;5116514;28;20520;-80
2023/08/20 09:17:16;;;;;;;8.80;7.95;;;26.80;99.90;;;;;;5115023;28;20213;-81
2023/08/20 09:19:44;;;;;;;8.25;7.65;;;26.90;99.90;;;;;;5116228;28;20174;-84
2023/08/20 09:22:12;;;;;;;8.45;7.68;;;26.90;99.90;;;;;;5101562;28;20709;-82
2023/08/20 09:24:45;;;;;;;8.23;7.53;;;26.80;99.90;;;;;;5103771;28;20228;-78
2023/08/20 09:27:14;;;;;;;7.68;7.10;;;26.70;99.90;;;;;;5115824;28;20201;-82
2023/08/20 09:29:51;;;;;;;8.25;7.57;;;26.70;99.90;;;;;;5105003;28;20277;-83
2023/08/20 09:32:23;;;;;;;8.43;7.63;;;26.80;99.90;;;;;;5078130;28;20228;-80
2023/08/20 09:34:50;;;;;;;7.80;7.20;;;26.80;99.90;;;;;;5095421;28;20167;-83
2023/08/20 09:37:18;;;;;;;8.30;7.70;;;26.80;99.90;;;;;;5100134;28;20197;-84
2023/08/20 09:39:45;;;;;;;8.10;7.35;;;26.80;99.90;;;;;;5100316;28;20182;-83
2023/08/20 09:42:12;;;;;;;8.32;7.57;;;26.80;99.90;;;;;;5096373;28;20179;-80
2023/08/20 09:44:39;;;;;;;8.43;7.82;;;26.90;99.90;;;;;;5079330;28;20239;-80
2023/08/20 09:47:10;;;;;;;8.60;8.00;;;27.00;99.90;;;;;;5095734;28;20543;-81
2023/08/20 09:49:41;;;;;;;7.70;7.13;;;27.00;99.90;;;;;;5077055;28;20352;-79
2023/08/20 09:52:17;;;;;;;8.23;7.63;;;27.10;99.90;;;;;;5095823;28;20171;-79
2023/08/20 09:55:07;;;;;;;8.68;7.85;;;27.10;99.90;;;;;;5075552;28;20174;-80
2023/08/20 09:57:42;;;;;;;7.72;7.13;;;27.10;99.90;;;;;;5094721;28;20163;-81
2023/08/20 10:00:10;;;;;;;8.63;7.80;;;27.20;99.90;;;;;;5095067;28;20170;-81
2023/08/20 10:02:37;;;;;;;8.02;7.30;;;27.40;99.90;;;;;;5094728;28;20198;-81
2023/08/20 10:05:07;;;;;;;7.18;6.68;;;27.50;99.90;;;;;;5095443;28;20194;-81
2023/08/20 10:07:34;;;;;;;7.72;7.13;;;27.60;99.90;;;;;;5095633;28;20216;-80
2023/08/20 10:10:11;;;;;;;8.07;7.10;;;27.60;99.90;;;;;;5095892;28;20193;-78
2023/08/20 10:12:39;;;;;;;8.18;7.53;;;27.60;99.90;;;;;;5105062;28;20182;-77
2023/08/20 10:15:07;;;;;;;7.65;7.05;;;27.80;99.90;;;;;;5112111;28;20174;-82
2023/08/20 10:17:33;;;;;;;7.13;6.63;;;27.80;99.90;;;;;;5095707;28;20667;-78
2023/08/20 10:20:01;;;;;;;7.93;7.22;;;27.70;99.90;;;;;;5095692;28;20182;-81
2023/08/20 10:22:39;;;;;;;7.20;6.60;;;27.70;99.90;;;;;;5111532;28;20256;-82
2023/08/20 10:25:07;;;;;;;7.22;6.72;;;27.80;99.90;;;;;;5114792;28;20597;-80
2023/08/20 10:27:35;;;;;;;7.20;6.60;;;27.80;99.90;;;;;;5114965;28;20181;-82
2023/08/20 10:30:07;;;;;;;7.20;6.60;;;27.80;99.90;;;;;;5114774;28;20177;-79
2023/08/20 10:32:51;;;;;;;9.27;6.70;;;27.80;99.90;;;;;;5113275;28;20190;-80
2023/08/20 10:35:28;;;;;;;7.30;6.70;;;27.80;99.90;;;;;;5114500;28;20174;-83
2023/08/20 10:38:05;;;;;;;7.10;6.60;;;27.80;99.90;;;;;;5114561;28;20165;-81
2023/08/20 10:40:58;;;;;;;7.57;6.88;;;27.90;99.90;;;;;;5115027;28;20173;-83
2023/08/20 10:43:38;;;;;;;7.85;6.75;;;27.90;99.90;;;;;;5112063;28;20252;-83
2023/08/20 10:46:15;;;;;;;7.75;7.18;;;28.10;99.90;;;;;;5127336;28;20174;-82
2023/08/20 10:48:59;;;;;;;7.75;7.07;;;28.10;99.90;;;;;;5117644;28;20168;-84
2023/08/20 10:51:33;;;;;;;7.55;6.95;;;28.20;99.90;;;;;;5116185;28;20185;-81
2023/08/20 10:54:05;;;;;;;6.95;6.45;;;28.10;99.90;;;;;;5113913;28;20162;-82
2023/08/20 10:56:48;;;;;;;7.20;6.60;;;28.20;99.90;;;;;;5114144;28;20174;-83
2023/08/20 10:59:22;;;;;;;7.53;6.97;;;28.30;99.90;;;;;;5114121;28;20501;-81
2023/08/20 11:01:52;;;;;;;7.35;6.75;;;28.30;99.90;;;;;;5114428;28;20636;-82
2023/08/20 11:04:20;;;;;;;7.85;7.22;;;28.30;99.90;;;;;;5106266;28;20213;-79
2023/08/20 11:06:49;;;;;;;6.70;6.30;;;28.40;99.90;;;;;;5115032;28;20231;-82
2023/08/20 11:09:15;;;;;;;7.13;6.60;;;28.40;99.90;;;;;;5111465;28;20189;-78
2023/08/20 11:11:44;;;;;;;7.25;6.75;;;28.30;99.90;;;;;;5112853;28;20644;-85
2023/08/20 11:14:14;;;;;;;7.18;6.57;;;28.30;99.90;;;;;;5121431;28;20186;-81
2023/08/20 11:16:41;;;;;;;6.72;6.22;;;28.40;99.90;;;;;;5129094;27;20212;-80
2023/08/20 11:19:10;;;;;;;6.43;5.93;;;28.40;99.90;;;;;;5098030;28;20258;-78
2023/08/20 11:21:40;;;;;;;6.90;6.40;;;28.40;99.90;;;;;;5122370;28;20236;-82
2023/08/20 11:24:07;;;;;;;6.88;6.38;;;28.40;99.90;;;;;;5093604;28;20221;-78
2023/08/20 11:26:36;;;;;;;6.95;6.43;;;28.50;99.90;;;;;;5108471;28;20239;-80
2023/08/20 11:29:10;;;;;;;6.97;6.47;;;28.50;99.90;;;;;;5113877;28;20190;-82
2023/08/20 11:31:37;;;;;;;6.65;6.05;;;28.50;99.90;;;;;;5113597;28;20181;-80
2023/08/20 11:34:04;;;;;;;7.07;6.57;;;28.60;99.90;;;;;;5094814;28;20178;-78
2023/08/20 11:36:29;;;;;;;7.13;6.63;;;28.60;99.90;;;;;;5113635;28;20176;-80
2023/08/20 11:38:55;;;;;;;6.50;6.03;;;28.60;99.90;;;;;;5113533;28;20535;-78
2023/08/20 11:41:22;;;;;;;6.53;5.93;;;28.70;99.90;;;;;;5094677;28;20226;-80
2023/08/20 11:43:48;;;;;;;6.50;6.00;;;28.80;99.90;;;;;;5114341;28;20744;-80
2023/08/20 11:46:20;;;;;;;6.68;6.07;;;28.90;99.90;;;;;;5113617;28;20178;-81
2023/08/20 11:49:26;;;;;;;6.35;5.85;;;29.00;99.90;;;;;;5113591;28;20185;-77
2023/08/20 11:51:52;;;;;;;7.25;6.50;;;29.00;99.90;;;;;;5031207;28;20223;-78
2023/08/20 11:54:19;;;;;;;6.03;5.63;;;29.00;99.90;;;;;;5030745;28;20216;-78
2023/08/20 11:56:46;;;;;;;6.30;5.80;;;29.00;99.90;;;;;;5030991;28;20193;-78
2023/08/20 11:59:13;;;;;;;6.57;6.03;;;29.00;99.90;;;;;;5034826;28;20184;-78
2023/08/20 12:01:39;;;;;;;6.68;6.10;;;29.00;99.90;;;;;;5034639;28;20212;-78
2023/08/20 12:04:07;;;;;;;7.05;6.45;;;29.00;99.90;;;;;;5017856;28;20738;-80
2023/08/20 12:06:38;;;;;;;6.35;5.95;;;29.00;99.90;;;;;;5035043;28;20262;-82
2023/08/20 12:09:22;;;;;;;6.40;6.00;;;29.00;99.90;;;;;;5035085;28;20327;-79
2023/08/20 12:11:57;;;;;;;6.88;6.15;;;29.20;99.90;;;;;;5037484;28;20237;-78
2023/08/20 12:14:27;;;;;;;6.97;6.45;;;29.20;99.90;;;;;;5039575;28;20212;-80
2023/08/20 12:16:56;;;;;;;6.68;6.28;;;29.20;99.90;;;;;;5034814;28;20195;-81
2023/08/20 12:19:22;;;;;;;6.15;5.75;;;29.20;99.90;;;;;;5042303;28;20210;-76
2023/08/20 12:21:49;;;;;;;6.57;6.10;;;29.30;99.90;;;;;;5049500;28;20309;-76
2023/08/20 12:24:15;;;;;;;6.40;5.90;;;29.20;99.90;;;;;;5054623;28;20212;-78
2023/08/20 12:26:41;;;;;;;6.43;5.97;;;29.20;99.90;;;;;;5070003;28;20205;-78
2023/08/20 12:29:07;;;;;;;6.28;5.85;;;29.20;99.90;;;;;;5099144;28;20221;-78
2023/08/20 12:31:34;;;;;;;6.63;6.10;;;29.20;99.90;;;;;;5122553;28;20182;-78
2023/08/20 12:34:01;;;;;;;6.40;5.95;;;29.30;99.90;;;;;;5119812;28;20210;-77
2023/08/20 12:36:27;;;;;;;6.65;5.85;;;29.30;99.90;;;;;;5119051;28;20174;-78
2023/08/20 12:38:54;;;;;;;6.30;5.80;;;29.30;99.80;;;;;;5096814;28;20193;-78